Time;durP1;ratioP1;P1;durP2;ratioP2;P2;SDS_P1;SDS_P2;PMS_P1;PMS_P2;Temp;Humidity;BMP_temperature;BMP_pressure;BME280_temperature;BME280_humidity;BME280_pressure;Samples;Min_cycle;Max_cycle;Signal;HPM_P1;HPM_P2
2021/04/23 00:02:00;;;;;;;22.08;14.77;;;12.80;99.90;;;;;;4917792;29;20115;-74
2021/04/23 00:04:25;;;;;;;21.67;13.55;;;12.80;99.80;;;;;;4918582;29;20120;-74
2021/04/23 00:06:55;;;;;;;24.63;15.18;;;12.90;99.70;;;;;;4916796;29;20076;-73
2021/04/23 00:09:26;;;;;;;27.63;15.32;;;13.00;99.70;;;;;;4918241;29;20074;-73
2021/04/23 00:11:59;;;;;;;22.23;15.02;;;12.90;99.50;;;;;;4913509;29;20370;-73
2021/04/23 00:14:28;;;;;;;22.00;15.25;;;12.90;99.70;;;;;;4899611;29;20040;-73
2021/04/23 00:16:54;;;;;;;25.23;15.20;;;12.90;99.80;;;;;;4913317;29;20038;-73
2021/04/23 00:19:25;;;;;;;21.40;15.13;;;12.80;99.80;;;;;;4918062;29;20039;-74
2021/04/23 00:21:52;;;;;;;27.25;14.25;;;12.80;99.90;;;;;;4918228;29;20559;-73
2021/04/23 00:24:19;;;;;;;21.52;15.73;;;12.80;99.90;;;;;;4918225;29;20056;-73
2021/04/23 00:26:45;;;;;;;25.58;15.88;;;12.80;99.90;;;;;;4918289;29;20036;-73
2021/04/23 00:29:10;;;;;;;22.00;14.43;;;12.80;99.90;;;;;;4917650;29;20024;-73
2021/04/23 00:31:38;;;;;;;25.73;15.30;;;12.80;99.90;;;;;;4917690;29;20507;-73
2021/04/23 00:34:05;;;;;;;22.35;15.50;;;12.80;99.90;;;;;;4907125;29;20067;-73
2021/04/23 00:36:31;;;;;;;24.25;16.20;;;12.70;99.90;;;;;;4904227;29;20020;-73
2021/04/23 00:38:56;;;;;;;22.15;14.38;;;12.70;99.90;;;;;;4900746;29;20495;-73
2021/04/23 00:41:27;;;;;;;24.40;15.23;;;12.70;99.90;;;;;;4906572;29;20421;-73
2021/04/23 00:43:59;;;;;;;21.95;14.00;;;12.60;99.90;;;;;;4908336;29;20028;-73
2021/04/23 00:46:26;;;;;;;24.40;15.07;;;12.60;99.90;;;;;;4898892;29;20056;-73
2021/04/23 00:48:53;;;;;;;33.80;15.27;;;12.60;99.90;;;;;;4901232;29;20031;-73
2021/04/23 00:51:26;;;;;;;21.58;14.85;;;12.50;99.90;;;;;;4917335;29;20028;-74
2021/04/23 00:53:54;;;;;;;24.35;15.07;;;12.50;99.90;;;;;;4917649;29;20107;-73
2021/04/23 00:56:27;;;;;;;25.83;15.68;;;12.50;99.90;;;;;;4896429;29;20063;-73
2021/04/23 00:58:53;;;;;;;24.67;15.45;;;12.40;99.90;;;;;;4933969;29;20094;-73
2021/04/23 01:01:24;;;;;;;26.55;16.13;;;12.40;99.90;;;;;;4915152;29;20024;-73
2021/04/23 01:03:51;;;;;;;28.95;16.52;;;12.40;99.90;;;;;;4917090;29;20032;-73
2021/04/23 01:06:20;;;;;;;26.00;15.75;;;12.50;99.90;;;;;;4917433;29;20476;-73
2021/04/23 01:08:47;;;;;;;21.85;15.07;;;12.50;99.90;;;;;;4917292;29;20024;-74
2021/04/23 01:11:15;;;;;;;26.20;15.88;;;12.50;99.90;;;;;;4917243;29;20032;-73
2021/04/23 01:13:42;;;;;;;24.02;15.32;;;12.60;99.90;;;;;;4905765;29;20051;-73
2021/04/23 01:16:11;;;;;;;24.10;15.45;;;12.60;99.90;;;;;;4936359;29;20035;-73
2021/04/23 01:18:38;;;;;;;21.35;14.13;;;12.50;99.90;;;;;;4935387;29;20036;-73
2021/04/23 01:21:16;;;;;;;22.73;14.82;;;12.40;99.90;;;;;;4900057;29;20052;-73
2021/04/23 01:23:44;;;;;;;25.33;15.90;;;12.30;99.90;;;;;;4917298;29;20032;-73
2021/04/23 01:26:11;;;;;;;29.58;16.52;;;12.30;99.90;;;;;;4917078;29;20477;-74
2021/04/23 01:28:41;;;;;;;28.48;16.60;;;12.10;99.90;;;;;;4917071;29;20028;-73
2021/04/23 01:31:11;;;;;;;27.55;16.83;;;12.10;99.90;;;;;;4917026;29;20032;-74
2021/04/23 01:33:40;;;;;;;24.63;16.67;;;12.00;99.90;;;;;;4917098;29;20024;-74
2021/04/23 01:36:07;;;;;;;26.70;17.02;;;12.00;99.90;;;;;;4917005;29;20032;-73
2021/04/23 01:38:35;;;;;;;28.00;17.08;;;12.00;99.90;;;;;;4899502;29;20477;-74
2021/04/23 01:41:00;;;;;;;26.75;16.33;;;12.10;99.90;;;;;;4916854;29;20028;-73
2021/04/23 01:43:26;;;;;;;25.58;15.80;;;12.10;99.90;;;;;;4916840;29;20031;-73
2021/04/23 01:45:52;;;;;;;23.45;15.23;;;12.10;99.90;;;;;;4900029;29;20078;-73
2021/04/23 01:48:18;;;;;;;28.52;16.30;;;12.10;99.90;;;;;;4916630;29;20518;-74
2021/04/23 01:50:44;;;;;;;30.55;17.30;;;12.10;99.90;;;;;;4931322;29;20042;-73
2021/04/23 01:53:11;;;;;;;27.83;15.82;;;12.10;99.90;;;;;;4900623;29;20087;-74
2021/04/23 01:55:37;;;;;;;27.45;16.02;;;12.10;99.90;;;;;;4880986;29;20052;-74
2021/04/23 01:58:03;;;;;;;29.30;16.00;;;12.10;99.90;;;;;;4881178;29;20033;-74
2021/04/23 02:00:36;;;;;;;24.75;16.38;;;12.10;99.90;;;;;;4909566;29;20618;-73
2021/04/23 02:03:05;;;;;;;28.48;16.77;;;12.10;99.90;;;;;;4897507;29;20056;-73
2021/04/23 02:05:32;;;;;;;28.23;16.30;;;12.10;99.90;;;;;;4898543;29;20025;-73
2021/04/23 02:07:59;;;;;;;27.77;16.23;;;12.20;99.90;;;;;;4897261;29;20028;-73
2021/04/23 02:10:35;;;;;;;26.70;15.80;;;12.20;99.90;;;;;;4880575;29;20401;-74
2021/04/23 02:13:02;;;;;;;24.52;15.57;;;12.30;99.90;;;;;;4882901;29;20048;-73
2021/04/23 02:15:29;;;;;;;31.27;16.38;;;12.30;99.90;;;;;;4903158;29;20084;-73
2021/04/23 02:17:56;;;;;;;32.13;16.50;;;12.40;99.90;;;;;;4897514;29;20029;-73
2021/04/23 02:20:30;;;;;;;26.15;15.73;;;12.40;99.90;;;;;;4897032;29;20625;-74
2021/04/23 02:23:01;;;;;;;24.05;15.65;;;12.40;99.90;;;;;;4897353;29;20020;-74
2021/04/23 02:25:30;;;;;;;24.65;15.10;;;12.50;99.90;;;;;;4880153;29;20025;-74
2021/04/23 02:27:57;;;;;;;28.50;16.10;;;12.40;99.90;;;;;;4896531;29;20497;-73
2021/04/23 02:30:31;;;;;;;25.45;15.43;;;12.50;99.90;;;;;;4906864;29;20555;-74
2021/04/23 02:32:58;;;;;;;27.80;16.10;;;12.50;99.90;;;;;;4896508;29;20071;-74
2021/04/23 02:35:25;;;;;;;27.70;15.25;;;12.50;99.90;;;;;;4915319;29;20391;-74
2021/04/23 02:37:53;;;;;;;25.75;15.23;;;12.60;99.90;;;;;;4915129;29;20036;-74
2021/04/23 02:40:22;;;;;;;23.20;14.52;;;12.60;99.90;;;;;;4887821;29;20039;-74
2021/04/23 02:42:51;;;;;;;28.90;16.23;;;12.60;99.90;;;;;;4896674;29;20024;-74
2021/04/23 02:45:20;;;;;;;26.80;15.20;;;12.60;99.90;;;;;;4880499;29;20020;-74
2021/04/23 02:47:46;;;;;;;25.17;15.85;;;12.60;99.90;;;;;;4903077;29;20075;-74
2021/04/23 02:50:16;;;;;;;24.60;14.75;;;12.60;99.90;;;;;;4909053;29;20028;-74
2021/04/23 02:52:41;;;;;;;22.38;15.27;;;12.60;99.90;;;;;;4897323;29;20025;-73
2021/04/23 02:55:10;;;;;;;27.70;16.58;;;12.60;99.90;;;;;;4882593;29;20035;-74
2021/04/23 02:57:35;;;;;;;30.65;17.30;;;12.50;99.90;;;;;;4914213;29;20403;-74
2021/04/23 03:00:04;;;;;;;26.75;17.02;;;12.50;99.90;;;;;;4915701;29;20131;-74
2021/04/23 03:02:29;;;;;;;23.63;14.88;;;12.50;99.90;;;;;;4916055;29;20025;-74
2021/04/23 03:04:57;;;;;;;22.92;15.18;;;12.50;99.90;;;;;;4915539;29;20031;-74
2021/04/23 03:07:22;;;;;;;26.33;15.38;;;12.50;99.90;;;;;;4914972;29;20050;-74
2021/04/23 03:09:49;;;;;;;23.40;15.07;;;12.50;99.90;;;;;;4896750;29;20489;-74
2021/04/23 03:12:16;;;;;;;22.73;14.88;;;12.50;99.90;;;;;;4897800;29;20040;-73
2021/04/23 03:14:42;;;;;;;24.42;14.95;;;12.50;99.90;;;;;;4896949;29;20037;-74
2021/04/23 03:17:08;;;;;;;28.20;15.35;;;12.60;99.90;;;;;;4897048;29;20503;-74
2021/04/23 03:19:33;;;;;;;23.52;15.00;;;12.60;99.90;;;;;;4904827;29;20472;-73
2021/04/23 03:21:59;;;;;;;27.13;15.70;;;12.60;99.90;;;;;;4894880;29;20113;-74
2021/04/23 03:24:25;;;;;;;27.42;15.95;;;12.60;99.90;;;;;;4880201;29;20057;-74
2021/04/23 03:26:51;;;;;;;28.02;15.65;;;12.60;99.90;;;;;;4898483;29;20029;-74
2021/04/23 03:29:17;;;;;;;30.00;15.35;;;12.60;99.90;;;;;;4900272;29;20059;-74
2021/04/23 03:31:44;;;;;;;22.05;15.23;;;12.60;99.90;;;;;;4883338;29;20435;-74
2021/04/23 03:34:11;;;;;;;24.52;14.57;;;12.60;99.90;;;;;;4901194;29;20116;-74
2021/04/23 03:36:37;;;;;;;27.90;15.27;;;12.60;99.90;;;;;;4904646;29;20035;-74
2021/04/23 03:39:05;;;;;;;23.40;16.15;;;12.60;99.90;;;;;;4938009;29;20131;-74
2021/04/23 03:41:33;;;;;;;25.45;15.65;;;12.60;99.90;;;;;;4925869;29;20028;-74
2021/04/23 03:44:00;;;;;;;22.45;15.20;;;12.60;99.90;;;;;;4918910;29;20543;-74
2021/04/23 03:46:26;;;;;;;29.38;16.52;;;12.50;99.90;;;;;;4901619;29;20043;-74
2021/04/23 03:48:52;;;;;;;25.30;16.05;;;12.50;99.90;;;;;;4901778;29;20063;-74
2021/04/23 03:51:19;;;;;;;25.13;14.98;;;12.40;99.90;;;;;;4918661;29;20206;-74
2021/04/23 03:53:46;;;;;;;27.02;16.05;;;12.40;99.90;;;;;;4931273;29;20043;-74
2021/04/23 03:56:13;;;;;;;28.73;16.33;;;12.40;99.90;;;;;;4920487;29;20079;-74
2021/04/23 03:58:40;;;;;;;25.90;15.18;;;12.40;99.90;;;;;;4937493;29;20074;-74
2021/04/23 04:01:18;;;;;;;26.05;15.35;;;12.40;99.90;;;;;;4937700;29;20019;-74
2021/04/23 04:03:47;;;;;;;26.17;16.00;;;12.40;99.90;;;;;;4937639;29;20024;-74
2021/04/23 04:06:13;;;;;;;28.10;15.73;;;12.40;99.90;;;;;;4937675;29;20026;-73
2021/04/23 04:08:39;;;;;;;27.92;16.48;;;12.40;99.90;;;;;;4920311;29;20040;-74
2021/04/23 04:11:06;;;;;;;26.10;15.82;;;12.40;99.90;;;;;;4937447;29;20110;-73
2021/04/23 04:13:32;;;;;;;27.27;16.30;;;12.30;99.90;;;;;;4937366;29;20156;-74
2021/04/23 04:15:59;;;;;;;22.92;15.02;;;12.30;99.90;;;;;;4937515;29;20028;-74
2021/04/23 04:18:25;;;;;;;27.88;16.40;;;12.30;99.90;;;;;;4937139;29;20096;-73
2021/04/23 04:20:51;;;;;;;25.98;15.93;;;12.30;99.90;;;;;;4937273;29;20076;-74
2021/04/23 04:23:18;;;;;;;27.95;16.52;;;12.20;99.90;;;;;;4920282;29;20099;-74
2021/04/23 04:25:47;;;;;;;27.73;16.10;;;12.20;99.90;;;;;;4937455;29;20023;-74
2021/04/23 04:28:14;;;;;;;29.83;16.42;;;12.30;99.90;;;;;;4918121;29;20024;-73
2021/04/23 04:30:40;;;;;;;24.65;15.63;;;12.30;99.90;;;;;;4901115;29;20541;-73
2021/04/23 04:33:07;;;;;;;24.85;15.60;;;12.30;99.90;;;;;;4899437;29;20148;-73
2021/04/23 04:35:33;;;;;;;26.35;15.23;;;12.30;99.90;;;;;;4918315;29;20091;-73
2021/04/23 04:38:00;;;;;;;25.98;15.43;;;12.30;99.90;;;;;;4916792;29;20384;-74
2021/04/23 04:40:27;;;;;;;27.52;16.25;;;12.30;99.90;;;;;;4917610;29;20080;-73
2021/04/23 04:42:54;;;;;;;25.58;16.23;;;12.30;99.90;;;;;;4915486;29;20028;-74
2021/04/23 04:45:23;;;;;;;27.02;16.17;;;12.30;99.90;;;;;;4898979;29;20481;-74
2021/04/23 04:47:49;;;;;;;26.55;15.95;;;12.20;99.90;;;;;;4881936;29;20060;-74
2021/04/23 04:50:37;;;;;;;28.25;16.55;;;12.20;99.90;;;;;;4895133;29;20034;-73
2021/04/23 04:53:05;;;;;;;34.45;17.80;;;12.30;99.90;;;;;;4917617;29;20036;-74
2021/04/23 04:55:33;;;;;;;26.05;17.20;;;12.30;99.90;;;;;;4917369;29;20036;-74
2021/04/23 04:58:00;;;;;;;30.33;17.60;;;12.30;99.90;;;;;;4917635;29;20036;-73
2021/04/23 05:00:28;;;;;;;27.40;16.38;;;12.30;99.90;;;;;;4900468;29;20036;-74
2021/04/23 05:02:55;;;;;;;32.53;17.73;;;12.40;99.90;;;;;;4915238;29;20572;-73
2021/04/23 05:05:24;;;;;;;31.52;17.52;;;12.40;99.90;;;;;;4917395;29;20059;-74
2021/04/23 05:07:51;;;;;;;24.50;16.05;;;12.40;99.90;;;;;;4917427;29;20477;-74
2021/04/23 05:10:17;;;;;;;27.08;16.98;;;12.40;99.90;;;;;;4917533;29;20035;-74
2021/04/23 05:12:43;;;;;;;27.48;17.67;;;12.40;99.90;;;;;;4917514;29;20020;-74
2021/04/23 05:15:10;;;;;;;33.60;18.05;;;12.50;99.90;;;;;;4917535;29;20043;-74
2021/04/23 05:17:37;;;;;;;31.55;17.30;;;12.40;99.90;;;;;;4917296;29;20024;-74
2021/04/23 05:20:07;;;;;;;30.48;17.17;;;12.40;99.90;;;;;;4916067;29;20119;-74
2021/04/23 05:22:35;;;;;;;32.50;17.42;;;12.50;99.90;;;;;;4917329;29;20024;-74
2021/04/23 05:25:02;;;;;;;32.00;18.80;;;12.50;99.90;;;;;;4914628;29;20461;-73
2021/04/23 05:27:28;;;;;;;30.20;17.70;;;12.50;99.90;;;;;;4897301;29;20112;-74
2021/04/23 05:29:54;;;;;;;28.70;17.98;;;12.50;99.90;;;;;;4897254;29;20137;-74
2021/04/23 05:32:20;;;;;;;29.35;18.08;;;12.50;99.90;;;;;;4880682;29;20037;-74
2021/04/23 05:34:47;;;;;;;30.77;17.60;;;12.50;99.90;;;;;;4914847;29;20036;-74
2021/04/23 05:37:13;;;;;;;29.85;17.40;;;12.50;99.90;;;;;;4899804;29;20105;-73
2021/04/23 05:39:42;;;;;;;32.28;17.50;;;12.60;99.90;;;;;;4916118;29;20071;-74
2021/04/23 05:42:09;;;;;;;34.03;18.25;;;12.60;99.90;;;;;;4916601;29;20107;-74
2021/04/23 05:44:34;;;;;;;27.25;17.65;;;12.60;99.90;;;;;;4916470;29;20028;-74
2021/04/23 05:47:00;;;;;;;29.58;17.83;;;12.70;99.90;;;;;;4916682;29;20040;-74
2021/04/23 05:49:26;;;;;;;32.67;17.67;;;12.60;99.90;;;;;;4913361;29;20040;-74
2021/04/23 05:51:52;;;;;;;29.13;18.05;;;12.70;99.90;;;;;;4916121;29;20028;-74
2021/04/23 05:54:18;;;;;;;38.60;19.02;;;12.80;99.90;;;;;;4899526;29;20039;-74
2021/04/23 05:56:44;;;;;;;31.55;19.33;;;12.80;99.90;;;;;;4898624;29;20075;-74
2021/04/23 05:59:10;;;;;;;39.13;18.75;;;12.80;99.90;;;;;;4897437;29;20120;-74
2021/04/23 06:01:36;;;;;;;29.50;18.73;;;12.90;99.90;;;;;;4897818;29;20103;-74
2021/04/23 06:04:02;;;;;;;30.02;18.73;;;12.90;99.90;;;;;;4917426;29;20028;-79
2021/04/23 06:06:27;;;;;;;30.00;18.95;;;13.00;99.90;;;;;;4935707;29;20055;-79
2021/04/23 06:08:53;;;;;;;35.72;18.08;;;13.00;99.90;;;;;;4935559;29;20024;-78
2021/04/23 06:11:21;;;;;;;34.95;17.15;;;13.10;99.90;;;;;;4935772;29;20024;-79
2021/04/23 06:13:46;;;;;;;34.20;18.17;;;13.10;99.90;;;;;;4935553;29;20023;-78
2021/04/23 06:16:13;;;;;;;28.45;17.85;;;13.20;99.90;;;;;;4935697;29;20016;-79
2021/04/23 06:18:41;;;;;;;27.67;16.90;;;13.20;99.90;;;;;;4934044;29;20023;-78
2021/04/23 06:21:08;;;;;;;29.52;18.23;;;13.20;99.90;;;;;;4908981;29;20119;-78
2021/04/23 06:23:35;;;;;;;31.48;17.50;;;13.30;99.90;;;;;;4935695;29;20110;-79
2021/04/23 06:26:00;;;;;;;29.13;16.48;;;13.40;99.90;;;;;;4921116;29;20481;-78
2021/04/23 06:28:27;;;;;;;29.00;17.23;;;13.40;99.90;;;;;;4916492;29;20096;-79
2021/04/23 06:30:53;;;;;;;27.98;15.55;;;13.50;99.90;;;;;;4899494;29;20024;-79
2021/04/23 06:33:22;;;;;;;25.95;16.52;;;13.50;99.90;;;;;;4916581;29;20040;-79
2021/04/23 06:35:48;;;;;;;27.60;16.50;;;13.60;99.90;;;;;;4899409;29;20035;-79
2021/04/23 06:38:14;;;;;;;26.35;16.27;;;13.60;99.90;;;;;;4899346;29;20028;-79
2021/04/23 06:40:40;;;;;;;32.15;17.42;;;13.60;99.90;;;;;;4916187;29;20040;-79
2021/04/23 06:43:06;;;;;;;31.10;17.02;;;13.70;99.90;;;;;;4912710;29;20029;-75
2021/04/23 06:45:32;;;;;;;25.63;15.77;;;13.70;99.90;;;;;;4897754;29;20031;-78
2021/04/23 06:47:58;;;;;;;35.38;18.58;;;13.90;99.90;;;;;;4912173;29;20044;-78
2021/04/23 06:50:24;;;;;;;28.63;16.92;;;13.80;99.90;;;;;;4915562;29;20084;-78
2021/04/23 06:52:53;;;;;;;31.38;17.23;;;13.80;99.90;;;;;;4910317;29;20408;-78
2021/04/23 06:55:23;;;;;;;27.90;16.40;;;13.90;99.90;;;;;;4897141;29;20819;-78
2021/04/23 06:57:51;;;;;;;28.55;17.05;;;13.90;99.90;;;;;;4917084;29;20051;-78
2021/04/23 07:00:24;;;;;;;28.77;17.40;;;13.90;99.90;;;;;;4924594;29;20031;-74
2021/04/23 07:02:52;;;;;;;31.48;17.95;;;14.00;99.90;;;;;;4908037;29;20078;-74
2021/04/23 07:05:19;;;;;;;28.30;17.50;;;14.00;99.90;;;;;;4906003;29;20392;-78
2021/04/23 07:07:46;;;;;;;30.73;18.25;;;14.00;99.90;;;;;;4913003;29;20119;-79
2021/04/23 07:10:15;;;;;;;28.25;17.23;;;14.10;99.90;;;;;;4934599;29;20023;-78
2021/04/23 07:12:42;;;;;;;32.60;17.85;;;14.10;99.90;;;;;;4919589;29;20048;-78
2021/04/23 07:15:10;;;;;;;37.15;19.50;;;14.10;99.90;;;;;;4913165;29;20024;-78
2021/04/23 07:17:36;;;;;;;28.80;18.67;;;14.10;99.90;;;;;;4919792;29;20064;-78
2021/04/23 07:20:02;;;;;;;35.08;19.98;;;14.10;99.90;;;;;;4920830;29;20115;-77
2021/04/23 07:22:28;;;;;;;31.67;18.05;;;14.20;99.90;;;;;;4938546;29;20118;-78
2021/04/23 07:24:54;;;;;;;30.20;15.65;;;14.20;99.90;;;;;;4918666;29;20143;-78
2021/04/23 07:27:19;;;;;;;30.45;16.05;;;14.30;99.90;;;;;;4938530;29;20102;-78
2021/04/23 07:29:46;;;;;;;23.30;14.68;;;14.30;99.90;;;;;;4938324;29;20036;-78
2021/04/23 07:32:12;;;;;;;26.75;13.70;;;14.30;99.90;;;;;;4938518;29;20023;-78
2021/04/23 07:34:38;;;;;;;23.95;14.20;;;14.30;99.90;;;;;;4938429;29;20046;-78
2021/04/23 07:37:03;;;;;;;23.10;14.63;;;14.40;99.90;;;;;;4936310;29;20031;-78
2021/04/23 07:39:29;;;;;;;32.72;17.25;;;14.40;99.90;;;;;;4911841;29;20036;-78
2021/04/23 07:41:56;;;;;;;28.70;16.00;;;14.40;99.90;;;;;;4927335;29;20120;-78
2021/04/23 07:44:24;;;;;;;27.92;16.60;;;14.50;99.90;;;;;;4931407;29;20028;-78
2021/04/23 07:46:50;;;;;;;26.48;16.80;;;14.60;99.90;;;;;;4903029;29;20046;-78
2021/04/23 07:49:16;;;;;;;30.98;17.60;;;14.60;99.90;;;;;;4914402;29;20039;-78
2021/04/23 07:51:42;;;;;;;28.27;17.25;;;14.60;99.90;;;;;;4915855;29;20031;-78
2021/04/23 07:54:09;;;;;;;29.10;16.75;;;14.60;99.90;;;;;;4919139;29;20088;-78
2021/04/23 07:56:36;;;;;;;27.08;17.10;;;14.70;99.90;;;;;;4919061;29;20028;-79
2021/04/23 07:59:03;;;;;;;29.13;18.73;;;14.70;99.90;;;;;;4918904;29;20556;-78
2021/04/23 08:01:29;;;;;;;29.35;17.27;;;14.70;99.90;;;;;;4918923;29;20051;-79
2021/04/23 08:03:55;;;;;;;26.85;16.48;;;14.80;99.90;;;;;;4918919;29;20059;-78
2021/04/23 08:06:20;;;;;;;28.63;17.42;;;14.80;99.90;;;;;;4918799;29;20488;-77
2021/04/23 08:08:46;;;;;;;27.67;17.90;;;14.80;99.90;;;;;;4901798;29;20480;-77
2021/04/23 08:11:12;;;;;;;31.42;17.45;;;14.90;99.90;;;;;;4918823;29;20024;-78
2021/04/23 08:13:46;;;;;;;33.50;20.15;;;14.90;99.90;;;;;;4918487;29;20107;-78
2021/04/23 08:16:18;;;;;;;30.90;18.27;;;15.00;99.90;;;;;;4918616;29;20025;-75
2021/04/23 08:18:45;;;;;;;32.08;19.83;;;15.00;99.90;;;;;;4918361;29;20028;-74
2021/04/23 08:21:10;;;;;;;37.45;20.10;;;15.00;99.90;;;;;;4937410;29;20020;-74
2021/04/23 08:23:36;;;;;;;34.35;20.52;;;15.00;99.90;;;;;;4937382;29;20036;-74
2021/04/23 08:26:03;;;;;;;39.03;19.38;;;15.00;99.90;;;;;;4919412;29;20043;-74
2021/04/23 08:28:31;;;;;;;41.88;20.25;;;15.00;99.90;;;;;;4937257;29;20383;-74
2021/04/23 08:30:57;;;;;;;26.73;16.80;;;15.10;99.90;;;;;;4937283;29;20020;-74
2021/04/23 08:33:23;;;;;;;32.65;19.83;;;15.10;99.90;;;;;;4904080;29;20038;-74
2021/04/23 08:35:48;;;;;;;35.10;18.92;;;15.10;99.90;;;;;;4933459;29;20027;-74
2021/04/23 08:38:14;;;;;;;31.60;17.10;;;15.20;99.90;;;;;;4935815;29;20032;-74
2021/04/23 08:40:40;;;;;;;31.75;19.13;;;15.20;99.90;;;;;;4935837;29;20093;-74
2021/04/23 08:43:08;;;;;;;26.65;16.40;;;15.30;99.90;;;;;;4936266;29;20483;-74
2021/04/23 08:45:34;;;;;;;25.95;17.25;;;15.40;99.90;;;;;;4936563;29;20034;-74
2021/04/23 08:48:00;;;;;;;31.45;18.15;;;15.40;99.90;;;;;;4935259;29;20043;-74
2021/04/23 08:50:26;;;;;;;34.05;19.48;;;15.50;99.90;;;;;;4921840;29;20032;-74
2021/04/23 08:52:57;;;;;;;26.50;17.02;;;15.40;99.90;;;;;;4920408;29;20110;-74
2021/04/23 08:55:25;;;;;;;26.77;16.58;;;15.50;99.90;;;;;;4936750;29;20027;-74
2021/04/23 08:57:51;;;;;;;33.75;17.95;;;15.60;99.90;;;;;;4927425;29;20032;-74
2021/04/23 09:00:18;;;;;;;29.92;18.40;;;15.60;99.70;;;;;;4919195;29;20032;-74
2021/04/23 09:02:45;;;;;;;30.63;18.25;;;15.70;99.90;;;;;;4917690;29;20099;-74
2021/04/23 09:05:12;;;;;;;31.10;17.52;;;15.60;99.90;;;;;;4900497;29;20024;-73
2021/04/23 09:07:37;;;;;;;37.05;19.27;;;15.60;99.90;;;;;;4917455;29;20031;-73
2021/04/23 09:10:12;;;;;;;28.83;18.17;;;15.60;99.90;;;;;;4917723;29;20467;-74
2021/04/23 09:12:39;;;;;;;29.92;18.02;;;15.80;99.90;;;;;;4917489;29;20032;-73
2021/04/23 09:15:22;;;;;;;27.77;17.20;;;15.90;99.90;;;;;;4917311;29;20079;-74
2021/04/23 09:18:08;;;;;;;30.13;17.88;;;15.90;99.90;;;;;;4900536;29;20126;-74
2021/04/23 09:20:36;;;;;;;24.25;15.65;;;16.00;99.90;;;;;;4900058;29;20460;-73
2021/04/23 09:23:13;;;;;;;33.97;16.95;;;16.10;99.90;;;;;;4917417;29;20025;-73
2021/04/23 09:25:41;;;;;;;26.70;16.35;;;16.20;99.90;;;;;;4899792;29;20024;-74
2021/04/23 09:28:07;;;;;;;25.90;16.20;;;16.30;99.50;;;;;;4917066;29;20031;-74
2021/04/23 09:30:33;;;;;;;31.05;16.80;;;16.40;99.90;;;;;;4917276;29;20036;-73
2021/04/23 09:32:59;;;;;;;24.17;16.80;;;16.40;98.90;;;;;;4900309;29;20056;-73
2021/04/23 09:35:25;;;;;;;34.97;17.77;;;16.40;99.50;;;;;;4899986;29;20020;-73
2021/04/23 09:37:55;;;;;;;24.85;16.40;;;16.50;99.00;;;;;;4916820;29;20028;-73
2021/04/23 09:40:30;;;;;;;31.75;16.55;;;16.60;99.30;;;;;;4916765;29;20032;-74
2021/04/23 09:43:02;;;;;;;31.55;16.77;;;16.60;99.10;;;;;;4916856;29;20032;-74
2021/04/23 09:45:33;;;;;;;29.10;16.58;;;16.70;99.90;;;;;;4916763;29;20032;-73
2021/04/23 09:48:00;;;;;;;31.23;16.00;;;16.80;98.30;;;;;;4916840;29;20509;-74
2021/04/23 09:50:33;;;;;;;32.38;17.08;;;16.90;99.00;;;;;;4916754;29;20504;-73
2021/04/23 09:53:01;;;;;;;28.83;17.65;;;17.00;98.20;;;;;;4916819;29;20106;-74
2021/04/23 09:55:30;;;;;;;30.65;17.02;;;17.00;97.90;;;;;;4916633;29;20075;-73
2021/04/23 09:58:01;;;;;;;24.40;15.93;;;17.10;98.00;;;;;;4916600;29;20031;-73
2021/04/23 10:00:29;;;;;;;26.30;15.90;;;17.20;98.00;;;;;;4916827;29;20060;-73
2021/04/23 10:03:00;;;;;;;28.55;17.13;;;17.10;96.90;;;;;;4916526;29;20153;-73
2021/04/23 10:05:40;;;;;;;27.38;17.38;;;17.10;97.00;;;;;;4916486;29;20016;-73
2021/04/23 10:08:12;;;;;;;29.38;18.30;;;17.10;96.70;;;;;;4916126;29;20039;-73
2021/04/23 10:10:49;;;;;;;28.50;16.88;;;17.00;96.80;;;;;;4899744;29;20020;-73
2021/04/23 10:13:16;;;;;;;38.08;18.50;;;17.10;97.20;;;;;;4899752;29;20067;-73
2021/04/23 10:15:43;;;;;;;25.42;17.25;;;17.10;96.90;;;;;;4916490;29;20024;-73
2021/04/23 10:18:13;;;;;;;31.75;18.88;;;17.20;96.50;;;;;;4916589;29;20044;-73
2021/04/23 10:20:43;;;;;;;29.15;19.17;;;17.20;96.50;;;;;;4916580;29;20032;-73
2021/04/23 10:23:15;;;;;;;30.40;18.52;;;17.30;97.70;;;;;;4916469;29;20417;-73
2021/04/23 10:25:41;;;;;;;30.98;19.77;;;17.40;97.50;;;;;;4916619;29;20372;-73
2021/04/23 10:28:09;;;;;;;30.55;18.27;;;17.30;96.70;;;;;;4899262;29;20024;-73
2021/04/23 10:30:42;;;;;;;30.33;18.00;;;17.30;97.10;;;;;;4899301;29;20524;-73
2021/04/23 10:33:13;;;;;;;32.28;17.67;;;17.40;96.70;;;;;;4916856;29;20020;-73
2021/04/23 10:35:42;;;;;;;26.13;17.10;;;17.50;96.30;;;;;;4916859;29;20047;-73
2021/04/23 10:38:10;;;;;;;25.17;16.38;;;17.50;96.00;;;;;;4903622;29;20028;-73
2021/04/23 10:40:38;;;;;;;22.80;15.55;;;17.70;95.70;;;;;;4920575;29;20076;-73
2021/04/23 10:43:11;;;;;;;26.85;17.40;;;17.80;94.50;;;;;;4920106;29;20028;-73
2021/04/23 10:46:09;;;;;;;26.60;16.65;;;17.80;93.40;;;;;;4919564;29;20013;-73
2021/04/23 10:48:36;;;;;;;24.33;16.80;;;17.70;93.40;;;;;;4900740;29;20040;-73
2021/04/23 10:51:08;;;;;;;21.45;15.07;;;17.60;93.30;;;;;;4883710;29;20405;-73
2021/04/23 10:53:43;;;;;;;25.30;15.27;;;17.70;95.00;;;;;;4908956;29;20032;-73
2021/04/23 10:56:21;;;;;;;26.45;15.75;;;17.60;93.80;;;;;;4919519;29;20030;-73
2021/04/23 10:58:48;;;;;;;26.33;15.32;;;17.80;94.10;;;;;;4916653;29;20035;-73
2021/04/23 11:01:14;;;;;;;25.33;16.02;;;17.90;94.50;;;;;;4900057;29;20160;-73
2021/04/23 11:03:43;;;;;;;18.83;13.95;;;17.90;92.80;;;;;;4900159;29;20449;-73
2021/04/23 11:06:12;;;;;;;19.67;13.57;;;17.90;93.30;;;;;;4900089;29;20089;-73
2021/04/23 11:08:38;;;;;;;19.70;13.57;;;17.90;92.70;;;;;;4900423;29;20049;-73
2021/04/23 11:11:13;;;;;;;18.92;13.95;;;17.80;92.20;;;;;;4899838;29;20107;-73
2021/04/23 11:13:41;;;;;;;26.40;15.18;;;18.00;93.70;;;;;;4899480;29;20040;-73
2021/04/23 11:16:23;;;;;;;21.35;14.60;;;18.00;92.30;;;;;;4882707;29;20043;-73
2021/04/23 11:19:22;;;;;;;21.65;13.88;;;18.10;92.40;;;;;;4900232;29;20036;-73
2021/04/23 11:21:52;;;;;;;25.67;15.73;;;18.20;92.90;;;;;;4900696;29;20032;-73
2021/04/23 11:24:23;;;;;;;21.23;14.13;;;18.10;92.60;;;;;;4899820;29;20033;-73
2021/04/23 11:27:00;;;;;;;20.60;12.93;;;18.10;93.20;;;;;;4900444;29;20381;-73
2021/04/23 11:29:28;;;;;;;19.17;12.85;;;18.10;93.40;;;;;;4900259;29;20029;-74
2021/04/23 11:32:12;;;;;;;20.63;12.52;;;18.10;92.60;;;;;;4883552;29;20115;-74
2021/04/23 11:34:43;;;;;;;18.23;13.43;;;18.00;92.30;;;;;;4900522;29;20492;-74
2021/04/23 11:37:11;;;;;;;24.55;13.90;;;18.10;93.30;;;;;;4900421;29;20025;-74
2021/04/23 11:39:41;;;;;;;23.23;15.65;;;18.10;91.70;;;;;;4883386;29;20414;-74
2021/04/23 11:42:21;;;;;;;19.13;14.25;;;18.10;91.20;;;;;;4900272;29;20021;-74
2021/04/23 11:45:06;;;;;;;20.38;14.13;;;18.20;91.20;;;;;;4900253;29;20036;-74
2021/04/23 11:47:54;;;;;;;19.80;14.07;;;18.40;91.50;;;;;;4910916;29;20040;-74
2021/04/23 11:50:26;;;;;;;17.77;13.35;;;18.60;90.50;;;;;;4931960;29;20402;-74
2021/04/23 11:53:05;;;;;;;16.20;12.20;;;18.80;88.20;;;;;;4934514;29;20043;-74
2021/04/23 11:55:33;;;;;;;23.00;14.23;;;19.00;87.70;;;;;;4921919;29;20115;-74
2021/04/23 11:58:10;;;;;;;19.73;11.07;;;19.20;89.20;;;;;;4903752;29;20032;-74
2021/04/23 12:00:37;;;;;;;14.77;11.43;;;19.50;90.20;;;;;;4918857;29;20028;-74
2021/04/23 12:03:08;;;;;;;16.40;12.00;;;19.80;88.60;;;;;;4918760;29;20028;-74
2021/04/23 12:05:48;;;;;;;16.65;12.30;;;20.00;88.20;;;;;;4918937;29;20062;-74
2021/04/23 12:08:24;;;;;;;21.58;12.52;;;20.00;81.70;;;;;;4901577;29;20413;-74
2021/04/23 12:10:55;;;;;;;16.35;11.35;;;20.00;80.00;;;;;;4901513;29;20024;-74
2021/04/23 12:13:26;;;;;;;18.77;12.18;;;20.10;83.80;;;;;;4918792;29;20068;-74
2021/04/23 12:15:58;;;;;;;17.73;10.93;;;20.30;80.80;;;;;;4901502;29;20016;-74
2021/04/23 12:18:24;;;;;;;14.15;11.00;;;20.50;79.70;;;;;;4901443;29;20038;-74
2021/04/23 12:20:52;;;;;;;15.15;11.60;;;20.50;78.40;;;;;;4918669;29;20028;-74
2021/04/23 12:23:24;;;;;;;14.02;10.48;;;20.30;78.50;;;;;;4901312;29;20115;-74
2021/04/23 12:25:58;;;;;;;16.05;10.82;;;20.20;80.50;;;;;;4917888;29;20024;-74
2021/04/23 12:28:36;;;;;;;16.85;11.55;;;20.10;81.60;;;;;;4900796;29;20039;-74
2021/04/23 12:31:20;;;;;;;17.00;10.38;;;20.20;80.40;;;;;;4900981;29;20388;-74
2021/04/23 12:33:54;;;;;;;15.00;10.98;;;20.40;79.00;;;;;;4917700;29;20484;-74
2021/04/23 12:36:44;;;;;;;15.63;11.52;;;20.60;77.70;;;;;;4917900;29;20028;-74